الصفحة الرئيسية
METAR-TAF:

METAR-TAF

مطار :

طشقند, أوزبكستان

دائرة عرض: 41-16N, خط طول: 069-16E, ارتفاع: 489 متر

مراقبة الطقس الحالي

تاريخ ووقت الإصدار 29 دقيقة قبل الساعة 16:30UTC
ريح 4 عقدة من الشرق/الشمال الشرقي
درجة الحرارة 20°درجة مئوية
الرطوبة 35%
ضغط 1016 hPa
الرؤية: 4000 متر
دخان

METAR: UTTT 251630Z 06004KT 4000 FU NSC 20/04 Q1016 R08R/CLRD70 NOSIG

زمن: 21:59 (16:59 UTC)

توقعات

تاريخ ووقت الإصدار 5ساعات و 59 دقيقة قبل الساعة 11:00UTC
التوقعات صالحة من25 الساعة 12 UTC إلى 26 الساعة 12 UTC
ريح 10 عقدة من الشمال
الرؤية: 7000 متر
مؤقت
من 25 الساعة 15 UTC إلى 25 الساعة 24 UTC
ريح 10 عقدة من الشرق/الشمال الشرقي تتزايد حتى 20 عقدة

TAF: UTTT 251100Z 2512/2612 35010KT 7000 NSC TEMPO 2515/2524 06010G20KT

أرصاد الطقس والتوقعات من أكثر من 4000 مطار (تقارير الطقس للمطار METAR والتنبؤ بالطقس بالمطارTAF).

المحطات المتاحة هي النقط الصفراء والحمراء على الخريطة.

حرك المؤشر فوق النقطة لمعرفة اسم المحطة.

ثم انقر لمعرفة أرصاد وتوقعات الطقس.

لتغيير الخارطة: اضغط على الأزرار الخضراء مع رمز الصليب الأسود للتكبير. على الزر الأخضر مع شرطة للتصغير، أو على الأسهم الخضراء للخرائط المجاورة.


METAR-TAF: